sensor_id;sensor_type;location;lat;lon;timestamp;pressure;altitude;pressure_sealevel;temperature;humidity
11053;BME280;55230;42.602;23.470;2023-03-22T00:01:14;93148.13;;;8.38;100.00
11053;BME280;55230;42.602;23.470;2023-03-22T00:03:41;93092.72;;;8.09;100.00
11053;BME280;55230;42.602;23.470;2023-03-22T00:06:10;93059.56;;;7.94;100.00
11053;BME280;55230;42.602;23.470;2023-03-22T00:08:37;93055.13;;;8.00;100.00
11053;BME280;55230;42.602;23.470;2023-03-22T00:11:05;93149.25;;;8.58;100.00
11053;BME280;55230;42.602;23.470;2023-03-22T00:13:32;93146.56;;;8.58;100.00
11053;BME280;55230;42.602;23.470;2023-03-22T00:15:59;93051.38;;;7.98;100.00
11053;BME280;55230;42.602;23.470;2023-03-22T00:18:30;93153.47;;;8.59;100.00
11053;BME280;55230;42.602;23.470;2023-03-22T00:20:58;93143.69;;;8.53;100.00
11053;BME280;55230;42.602;23.470;2023-03-22T00:23:27;93145.69;;;8.61;100.00
11053;BME280;55230;42.602;23.470;2023-03-22T00:25:54;92983.31;;;7.52;100.00
11053;BME280;55230;42.602;23.470;2023-03-22T00:28:22;93157.31;;;8.58;100.00
11053;BME280;55230;42.602;23.470;2023-03-22T00:30:54;93125.75;;;8.41;100.00
11053;BME280;55230;42.602;23.470;2023-03-22T00:33:22;93118.88;;;8.40;100.00
11053;BME280;55230;42.602;23.470;2023-03-22T00:35:50;93133.78;;;8.41;100.00
11053;BME280;55230;42.602;23.470;2023-03-22T00:38:17;93129.66;;;8.49;100.00
11053;BME280;55230;42.602;23.470;2023-03-22T00:40:46;93133.16;;;8.28;100.00
11053;BME280;55230;42.602;23.470;2023-03-22T00:43:13;93128.66;;;8.25;100.00
11053;BME280;55230;42.602;23.470;2023-03-22T00:45:40;93140.75;;;8.29;100.00
11053;BME280;55230;42.602;23.470;2023-03-22T00:48:07;93119.31;;;8.16;100.00
11053;BME280;55230;42.602;23.470;2023-03-22T00:50:35;93120.03;;;8.08;100.00
11053;BME280;55230;42.602;23.470;2023-03-22T00:53:02;93121.16;;;7.98;100.00
11053;BME280;55230;42.602;23.470;2023-03-22T00:55:29;93123.59;;;8.05;100.00
11053;BME280;55230;42.602;23.470;2023-03-22T00:57:57;93000.97;;;7.19;100.00
11053;BME280;55230;42.602;23.470;2023-03-22T01:00:24;93080.63;;;7.74;100.00
11053;BME280;55230;42.602;23.470;2023-03-22T01:02:51;92827.13;;;6.01;100.00
11053;BME280;55230;42.602;23.470;2023-03-22T01:05:24;93121.59;;;7.96;100.00
11053;BME280;55230;42.602;23.470;2023-03-22T01:07:52;93081.34;;;7.75;100.00
11053;BME280;55230;42.602;23.470;2023-03-22T01:10:20;93051.84;;;7.53;100.00
11053;BME280;55230;42.602;23.470;2023-03-22T01:12:46;93137.72;;;7.96;100.00
11053;BME280;55230;42.602;23.470;2023-03-22T01:15:14;93039.72;;;7.40;100.00
11053;BME280;55230;42.602;23.470;2023-03-22T01:17:41;93111.06;;;7.80;100.00
11053;BME280;55230;42.602;23.470;2023-03-22T01:20:09;92929.44;;;6.51;100.00
11053;BME280;55230;42.602;23.470;2023-03-22T01:22:36;93111.13;;;7.89;100.00
11053;BME280;55230;42.602;23.470;2023-03-22T01:25:03;92983.31;;;6.87;100.00
11053;BME280;55230;42.602;23.470;2023-03-22T01:27:31;93108.19;;;7.75;100.00
11053;BME280;55230;42.602;23.470;2023-03-22T01:29:58;93105.91;;;7.64;100.00
11053;BME280;55230;42.602;23.470;2023-03-22T01:32:26;93065.00;;;7.39;100.00
11053;BME280;55230;42.602;23.470;2023-03-22T01:34:53;93107.38;;;7.65;100.00
11053;BME280;55230;42.602;23.470;2023-03-22T01:37:19;93105.34;;;7.69;100.00
11053;BME280;55230;42.602;23.470;2023-03-22T01:39:52;93055.03;;;7.39;100.00
11053;BME280;55230;42.602;23.470;2023-03-22T01:42:19;93105.03;;;7.67;100.00
11053;BME280;55230;42.602;23.470;2023-03-22T01:45:26;93101.47;;;7.70;100.00
11053;BME280;55230;42.602;23.470;2023-03-22T01:47:59;93107.69;;;7.67;100.00
11053;BME280;55230;42.602;23.470;2023-03-22T01:50:28;93079.38;;;7.45;100.00
11053;BME280;55230;42.602;23.470;2023-03-22T01:52:56;93003.84;;;6.69;100.00
11053;BME280;55230;42.602;23.470;2023-03-22T01:55:24;93100.53;;;7.64;100.00
11053;BME280;55230;42.602;23.470;2023-03-22T01:57:52;92581.31;;;3.47;100.00
11053;BME280;55230;42.602;23.470;2023-03-22T02:00:19;93058.78;;;7.20;100.00
11053;BME280;55230;42.602;23.470;2023-03-22T02:02:49;93081.09;;;7.39;100.00
11053;BME280;55230;42.602;23.470;2023-03-22T02:05:18;93094.69;;;7.23;100.00
11053;BME280;55230;42.602;23.470;2023-03-22T02:07:46;93071.47;;;7.07;100.00
11053;BME280;55230;42.602;23.470;2023-03-22T02:10:16;93104.56;;;7.47;100.00
11053;BME280;55230;42.602;23.470;2023-03-22T02:12:51;93060.28;;;7.21;100.00
11053;BME280;55230;42.602;23.470;2023-03-22T02:15:25;93112.38;;;7.54;100.00
11053;BME280;55230;42.602;23.470;2023-03-22T02:18:00;93110.13;;;7.53;100.00
11053;BME280;55230;42.602;23.470;2023-03-22T02:21:06;93101.72;;;7.63;100.00
11053;BME280;55230;42.602;23.470;2023-03-22T02:29:59;93117.16;;;7.59;100.00
11053;BME280;55230;42.602;23.470;2023-03-22T02:32:56;93059.13;;;7.10;100.00
11053;BME280;55230;42.602;23.470;2023-03-22T02:35:48;93115.69;;;7.58;100.00
11053;BME280;55230;42.602;23.470;2023-03-22T02:41:23;93115.72;;;7.46;100.00
11053;BME280;55230;42.602;23.470;2023-03-22T02:44:02;93035.25;;;6.68;100.00
11053;BME280;55230;42.602;23.470;2023-03-22T02:46:35;93119.16;;;7.46;100.00
11053;BME280;55230;42.602;23.470;2023-03-22T02:49:13;93129.66;;;7.53;100.00
11053;BME280;55230;42.602;23.470;2023-03-22T02:51:45;92910.94;;;6.10;100.00
11053;BME280;55230;42.602;23.470;2023-03-22T02:54:19;93109.34;;;7.31;100.00
11053;BME280;55230;42.602;23.470;2023-03-22T02:56:53;92822.97;;;5.40;100.00
11053;BME280;55230;42.602;23.470;2023-03-22T02:59:22;92785.16;;;5.04;100.00
11053;BME280;55230;42.602;23.470;2023-03-22T03:01:53;92975.41;;;6.50;100.00
11053;BME280;55230;42.602;23.470;2023-03-22T03:04:24;93126.03;;;7.47;100.00
11053;BME280;55230;42.602;23.470;2023-03-22T03:06:55;93121.09;;;7.46;100.00
11053;BME280;55230;42.602;23.470;2023-03-22T03:09:24;93119.16;;;7.46;100.00
11053;BME280;55230;42.602;23.470;2023-03-22T03:11:53;93132.91;;;7.48;100.00
11053;BME280;55230;42.602;23.470;2023-03-22T03:14:21;93121.28;;;7.51;100.00
11053;BME280;55230;42.602;23.470;2023-03-22T03:17:05;93122.25;;;7.57;100.00
11053;BME280;55230;42.602;23.470;2023-03-22T03:19:40;93124.63;;;7.55;100.00
11053;BME280;55230;42.602;23.470;2023-03-22T03:22:24;93143.88;;;7.41;100.00
11053;BME280;55230;42.602;23.470;2023-03-22T03:25:00;93122.16;;;7.48;100.00
11053;BME280;55230;42.602;23.470;2023-03-22T03:27:34;93124.72;;;7.52;100.00
11053;BME280;55230;42.602;23.470;2023-03-22T03:30:07;93127.28;;;7.55;100.00
11053;BME280;55230;42.602;23.470;2023-03-22T03:32:41;93130.22;;;7.48;100.00
11053;BME280;55230;42.602;23.470;2023-03-22T03:35:13;93133.53;;;7.52;100.00
11053;BME280;55230;42.602;23.470;2023-03-22T03:37:50;93133.81;;;7.54;100.00
11053;BME280;55230;42.602;23.470;2023-03-22T03:40:21;93042.06;;;6.82;100.00
11053;BME280;55230;42.602;23.470;2023-03-22T03:42:52;93117.03;;;7.41;100.00
11053;BME280;55230;42.602;23.470;2023-03-22T03:45:19;93142.50;;;7.58;100.00
11053;BME280;55230;42.602;23.470;2023-03-22T03:47:48;93044.13;;;6.78;100.00
11053;BME280;55230;42.602;23.470;2023-03-22T03:50:20;93135.91;;;7.50;100.00
11053;BME280;55230;42.602;23.470;2023-03-22T03:52:46;93128.78;;;7.35;100.00
11053;BME280;55230;42.602;23.470;2023-03-22T03:55:13;93138.03;;;7.55;100.00
11053;BME280;55230;42.602;23.470;2023-03-22T03:57:40;93083.78;;;7.17;100.00
11053;BME280;55230;42.602;23.470;2023-03-22T04:00:09;93133.38;;;7.34;100.00
11053;BME280;55230;42.602;23.470;2023-03-22T04:02:38;93117.75;;;7.20;100.00
11053;BME280;55230;42.602;23.470;2023-03-22T04:05:06;93138.06;;;7.43;100.00
11053;BME280;55230;42.602;23.470;2023-03-22T04:07:33;93136.13;;;7.43;100.00
11053;BME280;55230;42.602;23.470;2023-03-22T04:10:00;93147.81;;;7.49;100.00
11053;BME280;55230;42.602;23.470;2023-03-22T04:12:27;93141.50;;;7.43;100.00
11053;BME280;55230;42.602;23.470;2023-03-22T04:14:55;93145.88;;;7.50;100.00
11053;BME280;55230;42.602;23.470;2023-03-22T04:17:23;93120.63;;;7.26;100.00
11053;BME280;55230;42.602;23.470;2023-03-22T04:19:51;93140.63;;;7.46;100.00
11053;BME280;55230;42.602;23.470;2023-03-22T04:22:21;93054.84;;;6.78;100.00
11053;BME280;55230;42.602;23.470;2023-03-22T04:24:48;93158.38;;;7.31;100.00
11053;BME280;55230;42.602;23.470;2023-03-22T04:27:15;93132.84;;;7.27;100.00
11053;BME280;55230;42.602;23.470;2023-03-22T04:29:42;93088.91;;;6.90;100.00
11053;BME280;55230;42.602;23.470;2023-03-22T04:32:13;93201.28;;;7.44;100.00
11053;BME280;55230;42.602;23.470;2023-03-22T04:34:42;93172.78;;;7.25;100.00
11053;BME280;55230;42.602;23.470;2023-03-22T04:37:09;93089.50;;;6.94;100.00
11053;BME280;55230;42.602;23.470;2023-03-22T04:39:35;93160.41;;;7.40;100.00
11053;BME280;55230;42.602;23.470;2023-03-22T04:42:02;93105.03;;;6.99;100.00
11053;BME280;55230;42.602;23.470;2023-03-22T04:44:29;92755.38;;;4.55;100.00
11053;BME280;55230;42.602;23.470;2023-03-22T04:46:56;93110.63;;;7.04;100.00
11053;BME280;55230;42.602;23.470;2023-03-22T04:49:23;93172.22;;;7.30;100.00
11053;BME280;55230;42.602;23.470;2023-03-22T04:51:52;93008.38;;;6.00;100.00
11053;BME280;55230;42.602;23.470;2023-03-22T04:54:19;93150.81;;;7.17;100.00
11053;BME280;55230;42.602;23.470;2023-03-22T04:56:46;93178.66;;;7.32;100.00
11053;BME280;55230;42.602;23.470;2023-03-22T04:59:13;93127.78;;;7.07;100.00
11053;BME280;55230;42.602;23.470;2023-03-22T05:01:42;93131.47;;;6.88;100.00
11053;BME280;55230;42.602;23.470;2023-03-22T05:04:08;93176.50;;;7.27;100.00
11053;BME280;55230;42.602;23.470;2023-03-22T05:06:36;93179.72;;;7.35;100.00
11053;BME280;55230;42.602;23.470;2023-03-22T05:09:04;93185.72;;;7.39;100.00
11053;BME280;55230;42.602;23.470;2023-03-22T05:11:31;93182.69;;;7.49;100.00
11053;BME280;55230;42.602;23.470;2023-03-22T05:13:58;93190.16;;;7.54;100.00
11053;BME280;55230;42.602;23.470;2023-03-22T05:16:25;93149.94;;;7.20;100.00
11053;BME280;55230;42.602;23.470;2023-03-22T05:18:52;93187.53;;;7.42;100.00
11053;BME280;55230;42.602;23.470;2023-03-22T05:21:20;93188.38;;;7.39;100.00
11053;BME280;55230;42.602;23.470;2023-03-22T05:23:52;93203.75;;;7.38;100.00
11053;BME280;55230;42.602;23.470;2023-03-22T05:26:21;93204.38;;;7.42;100.00
11053;BME280;55230;42.602;23.470;2023-03-22T05:28:49;93127.25;;;6.87;100.00
11053;BME280;55230;42.602;23.470;2023-03-22T05:31:15;93204.91;;;7.37;100.00
11053;BME280;55230;42.602;23.470;2023-03-22T05:33:42;93203.19;;;7.43;100.00
11053;BME280;55230;42.602;23.470;2023-03-22T05:36:10;93211.44;;;7.49;100.00
11053;BME280;55230;42.602;23.470;2023-03-22T05:38:37;93207.91;;;7.52;100.00
11053;BME280;55230;42.602;23.470;2023-03-22T05:41:05;93165.31;;;7.41;100.00
11053;BME280;55230;42.602;23.470;2023-03-22T05:43:33;92984.56;;;6.27;100.00
11053;BME280;55230;42.602;23.470;2023-03-22T05:45:59;93201.06;;;7.72;100.00
11053;BME280;55230;42.602;23.470;2023-03-22T05:48:26;93205.94;;;7.86;100.00
11053;BME280;55230;42.602;23.470;2023-03-22T05:50:53;93150.75;;;6.83;100.00
11053;BME280;55230;42.602;23.470;2023-03-22T05:53:19;93143.22;;;7.03;100.00
11053;BME280;55230;42.602;23.470;2023-03-22T05:55:46;93167.97;;;7.54;100.00
11053;BME280;55230;42.602;23.470;2023-03-22T05:58:13;93110.38;;;7.12;100.00
11053;BME280;55230;42.602;23.470;2023-03-22T06:00:44;93145.84;;;7.28;100.00
11053;BME280;55230;42.602;23.470;2023-03-22T06:03:14;93245.09;;;7.96;100.00
11053;BME280;55230;42.602;23.470;2023-03-22T06:05:41;93229.91;;;7.81;100.00
11053;BME280;55230;42.602;23.470;2023-03-22T06:08:07;93236.59;;;7.76;100.00
11053;BME280;55230;42.602;23.470;2023-03-22T06:10:34;93063.66;;;6.66;100.00
11053;BME280;55230;42.602;23.470;2023-03-22T06:13:01;93243.38;;;7.68;100.00
11053;BME280;55230;42.602;23.470;2023-03-22T06:15:27;93028.06;;;6.19;100.00
11053;BME280;55230;42.602;23.470;2023-03-22T06:17:56;93201.78;;;7.51;100.00
11053;BME280;55230;42.602;23.470;2023-03-22T06:20:22;93241.91;;;7.89;100.00
11053;BME280;55230;42.602;23.470;2023-03-22T06:22:50;93245.03;;;7.87;100.00
11053;BME280;55230;42.602;23.470;2023-03-22T06:25:16;93249.13;;;7.79;100.00
11053;BME280;55230;42.602;23.470;2023-03-22T06:27:43;93245.50;;;7.73;100.00
11053;BME280;55230;42.602;23.470;2023-03-22T06:30:10;93213.72;;;7.38;100.00
11053;BME280;55230;42.602;23.470;2023-03-22T06:32:37;93071.16;;;6.71;100.00
11053;BME280;55230;42.602;23.470;2023-03-22T06:35:06;93242.69;;;8.11;100.00
11053;BME280;55230;42.602;23.470;2023-03-22T06:37:33;93169.50;;;7.76;100.00
11053;BME280;55230;42.602;23.470;2023-03-22T06:40:00;92973.06;;;6.52;100.00
11053;BME280;55230;42.602;23.470;2023-03-22T06:42:26;93236.56;;;8.32;100.00
11053;BME280;55230;42.602;23.470;2023-03-22T06:44:55;93045.78;;;6.97;100.00
11053;BME280;55230;42.602;23.470;2023-03-22T06:47:22;93051.44;;;7.33;100.00
11053;BME280;55230;42.602;23.470;2023-03-22T06:49:49;93246.50;;;8.66;100.00
11053;BME280;55230;42.602;23.470;2023-03-22T06:52:17;93135.28;;;8.11;100.00
11053;BME280;55230;42.602;23.470;2023-03-22T06:54:44;93243.09;;;9.05;100.00
11053;BME280;55230;42.602;23.470;2023-03-22T06:57:11;93250.56;;;9.10;100.00
11053;BME280;55230;42.602;23.470;2023-03-22T06:59:38;93259.56;;;9.16;100.00
11053;BME280;55230;42.602;23.470;2023-03-22T07:02:05;93211.44;;;8.48;100.00
11053;BME280;55230;42.602;23.470;2023-03-22T07:04:31;93262.63;;;8.66;100.00
11053;BME280;55230;42.602;23.470;2023-03-22T07:06:58;93063.44;;;7.07;100.00
11053;BME280;55230;42.602;23.470;2023-03-22T07:09:26;93261.81;;;8.35;100.00
11053;BME280;55230;42.602;23.470;2023-03-22T07:11:53;93176.03;;;7.75;100.00
11053;BME280;55230;42.602;23.470;2023-03-22T07:14:20;93287.94;;;8.21;100.00
11053;BME280;55230;42.602;23.470;2023-03-22T07:16:46;93234.19;;;7.78;100.00
11053;BME280;55230;42.602;23.470;2023-03-22T07:19:13;93263.41;;;8.10;100.00
11053;BME280;55230;42.602;23.470;2023-03-22T07:21:41;93286.78;;;8.23;100.00
11053;BME280;55230;42.602;23.470;2023-03-22T07:24:08;93280.25;;;8.24;100.00
11053;BME280;55230;42.602;23.470;2023-03-22T07:26:38;93288.06;;;8.31;100.00
11053;BME280;55230;42.602;23.470;2023-03-22T07:29:05;93293.50;;;8.40;100.00
11053;BME280;55230;42.602;23.470;2023-03-22T07:31:32;93296.81;;;8.44;100.00
11053;BME280;55230;42.602;23.470;2023-03-22T07:34:00;93236.91;;;8.21;100.00
11053;BME280;55230;42.602;23.470;2023-03-22T07:36:27;93292.44;;;8.59;100.00
11053;BME280;55230;42.602;23.470;2023-03-22T07:38:54;93301.38;;;8.56;100.00
11053;BME280;55230;42.602;23.470;2023-03-22T07:41:21;93211.56;;;8.01;100.00
11053;BME280;55230;42.602;23.470;2023-03-22T07:43:49;93231.78;;;8.14;100.00
11053;BME280;55230;42.602;23.470;2023-03-22T07:46:16;93302.13;;;8.78;100.00
11053;BME280;55230;42.602;23.470;2023-03-22T07:48:43;93289.38;;;8.13;100.00
11053;BME280;55230;42.602;23.470;2023-03-22T07:51:10;93208.44;;;8.02;100.00
11053;BME280;55230;42.602;23.470;2023-03-22T07:53:36;93220.94;;;7.96;100.00
11053;BME280;55230;42.602;23.470;2023-03-22T07:56:04;93303.94;;;8.59;100.00
11053;BME280;55230;42.602;23.470;2023-03-22T07:58:30;93310.94;;;8.57;100.00
11053;BME280;55230;42.602;23.470;2023-03-22T08:01:02;93185.28;;;7.40;100.00
11053;BME280;55230;42.602;23.470;2023-03-22T08:03:29;93095.06;;;6.53;100.00
11053;BME280;55230;42.602;23.470;2023-03-22T08:05:59;93306.47;;;8.19;100.00
11053;BME280;55230;42.602;23.470;2023-03-22T08:08:28;93305.94;;;8.12;100.00
11053;BME280;55230;42.602;23.470;2023-03-22T08:10:55;93311.41;;;8.21;100.00
11053;BME280;55230;42.602;23.470;2023-03-22T08:13:22;93313.19;;;8.37;100.00
11053;BME280;55230;42.602;23.470;2023-03-22T08:15:49;93198.53;;;7.56;100.00
11053;BME280;55230;42.602;23.470;2023-03-22T08:18:17;93312.94;;;8.44;100.00
11053;BME280;55230;42.602;23.470;2023-03-22T08:20:43;93279.59;;;8.19;100.00
11053;BME280;55230;42.602;23.470;2023-03-22T08:23:11;92835.81;;;5.20;100.00
11053;BME280;55230;42.602;23.470;2023-03-22T08:25:40;93307.31;;;8.51;100.00
11053;BME280;55230;42.602;23.470;2023-03-22T08:28:07;93196.63;;;7.44;100.00
11053;BME280;55230;42.602;23.470;2023-03-22T08:30:34;92988.13;;;6.12;100.00
11053;BME280;55230;42.602;23.470;2023-03-22T08:33:01;93375.09;;;8.33;100.00
11053;BME280;55230;42.602;23.470;2023-03-22T08:35:29;93313.75;;;8.53;100.00
11053;BME280;55230;42.602;23.470;2023-03-22T08:37:55;93315.06;;;8.70;100.00
11053;BME280;55230;42.602;23.470;2023-03-22T08:40:22;93245.84;;;8.31;100.00
11053;BME280;55230;42.602;23.470;2023-03-22T08:42:49;93318.69;;;8.76;100.00
11053;BME280;55230;42.602;23.470;2023-03-22T08:45:16;93322.34;;;8.70;100.00
11053;BME280;55230;42.602;23.470;2023-03-22T08:47:43;93320.88;;;8.69;100.00
11053;BME280;55230;42.602;23.470;2023-03-22T08:50:11;93324.84;;;8.86;100.00
11053;BME280;55230;42.602;23.470;2023-03-22T08:52:39;93281.06;;;8.55;100.00
11053;BME280;55230;42.602;23.470;2023-03-22T08:55:07;93282.13;;;8.57;100.00
11053;BME280;55230;42.602;23.470;2023-03-22T08:57:34;93153.00;;;7.87;100.00
11053;BME280;55230;42.602;23.470;2023-03-22T09:00:04;93330.81;;;8.81;100.00
11053;BME280;55230;42.602;23.470;2023-03-22T09:02:32;93323.38;;;8.85;100.00
11053;BME280;55230;42.602;23.470;2023-03-22T09:04:58;93331.06;;;8.95;100.00
11053;BME280;55230;42.602;23.470;2023-03-22T09:07:26;93333.63;;;9.08;100.00
11053;BME280;55230;42.602;23.470;2023-03-22T09:09:54;93069.56;;;7.29;100.00
11053;BME280;55230;42.602;23.470;2023-03-22T09:12:21;93337.47;;;9.28;100.00
11053;BME280;55230;42.602;23.470;2023-03-22T09:14:48;93290.75;;;9.04;100.00
11053;BME280;55230;42.602;23.470;2023-03-22T09:17:15;93174.19;;;7.85;100.00
11053;BME280;55230;42.602;23.470;2023-03-22T09:19:43;93294.63;;;9.03;100.00
11053;BME280;55230;42.602;23.470;2023-03-22T09:22:10;93340.34;;;9.34;100.00
11053;BME280;55230;42.602;23.470;2023-03-22T09:24:37;93345.03;;;9.12;100.00
11053;BME280;55230;42.602;23.470;2023-03-22T09:27:05;93249.69;;;8.52;100.00
11053;BME280;55230;42.602;23.470;2023-03-22T09:29:31;93338.88;;;9.11;100.00
11053;BME280;55230;42.602;23.470;2023-03-22T09:31:58;93297.13;;;8.98;100.00
11053;BME280;55230;42.602;23.470;2023-03-22T09:34:25;93340.09;;;9.41;100.00
11053;BME280;55230;42.602;23.470;2023-03-22T09:36:52;93347.66;;;9.64;100.00
11053;BME280;55230;42.602;23.470;2023-03-22T09:39:19;93338.66;;;9.58;100.00
11053;BME280;55230;42.602;23.470;2023-03-22T09:41:51;93295.59;;;9.18;100.00
11053;BME280;55230;42.602;23.470;2023-03-22T09:44:26;93347.78;;;9.21;100.00
11053;BME280;55230;42.602;23.470;2023-03-22T09:46:56;93350.03;;;9.22;100.00
11053;BME280;55230;42.602;23.470;2023-03-22T09:49:28;93342.19;;;8.85;100.00
11053;BME280;55230;42.602;23.470;2023-03-22T09:51:57;93190.00;;;7.70;100.00
11053;BME280;55230;42.602;23.470;2023-03-22T09:54:29;93388.19;;;9.08;100.00
11053;BME280;55230;42.602;23.470;2023-03-22T09:57:01;93304.00;;;8.47;100.00
11053;BME280;55230;42.602;23.470;2023-03-22T09:59:36;93286.44;;;8.33;100.00
11053;BME280;55230;42.602;23.470;2023-03-22T10:02:23;93032.00;;;6.27;100.00
11053;BME280;55230;42.602;23.470;2023-03-22T10:05:00;93242.09;;;7.60;100.00
11053;BME280;55230;42.602;23.470;2023-03-22T10:07:33;93361.47;;;8.28;100.00
11053;BME280;55230;42.602;23.470;2023-03-22T10:10:12;93359.91;;;8.39;100.00
11053;BME280;55230;42.602;23.470;2023-03-22T10:12:45;93357.81;;;8.56;100.00
11053;BME280;55230;42.602;23.470;2023-03-22T10:15:18;93357.00;;;8.68;100.00
11053;BME280;55230;42.602;23.470;2023-03-22T10:17:50;93289.28;;;8.17;100.00
11053;BME280;55230;42.602;23.470;2023-03-22T10:20:26;93356.81;;;8.84;100.00
11053;BME280;55230;42.602;23.470;2023-03-22T10:22:55;93361.94;;;8.91;100.00
11053;BME280;55230;42.602;23.470;2023-03-22T10:25:30;93306.91;;;8.61;100.00
11053;BME280;55230;42.602;23.470;2023-03-22T10:27:58;93359.69;;;9.11;100.00
11053;BME280;55230;42.602;23.470;2023-03-22T10:30:28;93361.94;;;9.12;100.00
11053;BME280;55230;42.602;23.470;2023-03-22T10:32:59;93335.03;;;8.91;100.00
11053;BME280;55230;42.602;23.470;2023-03-22T10:35:27;93319.06;;;8.44;100.00
11053;BME280;55230;42.602;23.470;2023-03-22T10:37:56;93355.94;;;8.65;100.00
11053;BME280;55230;42.602;23.470;2023-03-22T10:40:26;93362.56;;;8.52;100.00
11053;BME280;55230;42.602;23.470;2023-03-22T10:42:56;93339.19;;;8.40;100.00
11053;BME280;55230;42.602;23.470;2023-03-22T10:45:27;93290.75;;;7.96;100.00
11053;BME280;55230;42.602;23.470;2023-03-22T10:47:58;93369.16;;;8.38;100.00
11053;BME280;55230;42.602;23.470;2023-03-22T10:50:30;93354.44;;;8.30;100.00
11053;BME280;55230;42.602;23.470;2023-03-22T10:53:02;93260.22;;;7.69;100.00
11053;BME280;55230;42.602;23.470;2023-03-22T10:55:30;93361.47;;;8.28;100.00
11053;BME280;55230;42.602;23.470;2023-03-22T10:58:07;93317.88;;;8.11;100.00
11053;BME280;55230;42.602;23.470;2023-03-22T11:00:37;93335.25;;;8.19;100.00
11053;BME280;55230;42.602;23.470;2023-03-22T11:03:05;93354.69;;;8.57;100.00
11053;BME280;55230;42.602;23.470;2023-03-22T11:05:32;92930.03;;;5.87;100.00
11053;BME280;55230;42.602;23.470;2023-03-22T11:08:01;93330.31;;;8.52;100.00
11053;BME280;55230;42.602;23.470;2023-03-22T11:10:29;93325.94;;;8.88;100.00
11053;BME280;55230;42.602;23.470;2023-03-22T11:13:11;93343.88;;;9.22;100.00
11053;BME280;55230;42.602;23.470;2023-03-22T11:15:48;93357.31;;;9.53;100.00
11053;BME280;55230;42.602;23.470;2023-03-22T11:18:18;93348.31;;;9.86;100.00
11053;BME280;55230;42.602;23.470;2023-03-22T11:20:54;93198.97;;;8.93;100.00
11053;BME280;55230;42.602;23.470;2023-03-22T11:23:23;93355.13;;;10.09;100.00
11053;BME280;55230;42.602;23.470;2023-03-22T11:25:51;93345.84;;;10.10;100.00
11053;BME280;55230;42.602;23.470;2023-03-22T11:28:25;93358.25;;;9.59;100.00
11053;BME280;55230;42.602;23.470;2023-03-22T11:31:05;93352.09;;;9.58;100.00
11053;BME280;55230;42.602;23.470;2023-03-22T11:33:34;93347.91;;;9.17;100.00
11053;BME280;55230;42.602;23.470;2023-03-22T11:36:03;93341.44;;;8.63;100.00
11053;BME280;55230;42.602;23.470;2023-03-22T11:38:34;93342.63;;;8.62;100.00
11053;BME280;55230;42.602;23.470;2023-03-22T11:41:03;93339.19;;;8.61;100.00
11053;BME280;55230;42.602;23.470;2023-03-22T11:43:34;93344.06;;;8.54;100.00
11053;BME280;55230;42.602;23.470;2023-03-22T11:46:03;93338.75;;;8.63;100.00
11053;BME280;55230;42.602;23.470;2023-03-22T11:48:31;93194.13;;;7.62;100.00
11053;BME280;55230;42.602;23.470;2023-03-22T11:51:05;93295.19;;;8.25;100.00
11053;BME280;55230;42.602;23.470;2023-03-22T11:53:34;93303.75;;;8.54;100.00
11053;BME280;55230;42.602;23.470;2023-03-22T11:56:04;93279.31;;;8.61;100.00
11053;BME280;55230;42.602;23.470;2023-03-22T11:58:53;93304.06;;;9.08;100.00
11053;BME280;55230;42.602;23.470;2023-03-22T12:01:30;93292.38;;;9.32;100.00
11053;BME280;55230;42.602;23.470;2023-03-22T12:04:00;93359.72;;;9.90;100.00
11053;BME280;55230;42.602;23.470;2023-03-22T12:06:32;93291.13;;;9.64;100.00
11053;BME280;55230;42.602;23.470;2023-03-22T12:09:04;93349.31;;;10.19;100.00
11053;BME280;55230;42.602;23.470;2023-03-22T12:11:35;93260.03;;;9.72;100.00
11053;BME280;55230;42.602;23.470;2023-03-22T12:14:06;93296.16;;;9.53;100.00
11053;BME280;55230;42.602;23.470;2023-03-22T12:16:45;93248.53;;;9.23;100.00
11053;BME280;55230;42.602;23.470;2023-03-22T12:19:21;93334.50;;;9.66;100.00
11053;BME280;55230;42.602;23.470;2023-03-22T12:21:54;93298.81;;;9.35;100.00
11053;BME280;55230;42.602;23.470;2023-03-22T12:24:26;93339.78;;;9.39;100.00
11053;BME280;55230;42.602;23.470;2023-03-22T12:26:57;92939.16;;;6.58;100.00
11053;BME280;55230;42.602;23.470;2023-03-22T12:29:26;93334.00;;;9.19;100.00
11053;BME280;55230;42.602;23.470;2023-03-22T12:32:01;93262.50;;;8.69;100.00
11053;BME280;55230;42.602;23.470;2023-03-22T12:34:35;93262.00;;;8.62;100.00
11053;BME280;55230;42.602;23.470;2023-03-22T12:37:06;93334.75;;;9.19;100.00
11053;BME280;55230;42.602;23.470;2023-03-22T12:39:38;93266.53;;;8.74;100.00
11053;BME280;55230;42.602;23.470;2023-03-22T12:42:12;93265.81;;;8.52;100.00
11053;BME280;55230;42.602;23.470;2023-03-22T12:44:44;93330.66;;;9.06;100.00
11053;BME280;55230;42.602;23.470;2023-03-22T12:47:17;93338.31;;;8.86;100.00
11053;BME280;55230;42.602;23.470;2023-03-22T12:49:51;93243.06;;;8.22;100.00
11053;BME280;55230;42.602;23.470;2023-03-22T12:52:23;93254.47;;;8.26;100.00
11053;BME280;55230;42.602;23.470;2023-03-22T12:54:51;93333.28;;;8.97;100.00
11053;BME280;55230;42.602;23.470;2023-03-22T12:57:18;93158.00;;;7.97;100.00
11053;BME280;55230;42.602;23.470;2023-03-22T12:59:48;93289.16;;;8.85;100.00
11053;BME280;55230;42.602;23.470;2023-03-22T13:02:22;93319.84;;;9.27;100.00
11053;BME280;55230;42.602;23.470;2023-03-22T13:04:53;93322.34;;;9.22;100.00
11053;BME280;55230;42.602;23.470;2023-03-22T13:07:37;93270.19;;;8.89;100.00
11053;BME280;55230;42.602;23.470;2023-03-22T13:10:37;93337.06;;;9.39;100.00
11053;BME280;55230;42.602;23.470;2023-03-22T13:13:12;93319.22;;;9.63;100.00